Pleasant City, Ohio
Current Conditions -  °F | °C
As of 1:53 PM on Monday 20 Oct 2014 (Local Time) from KPKB Reporting Station
Broken Clouds Broken Clouds  
Wind Chill: 56°   Ceiling: 8500
Heat Index: 56°   Visibility: 10mi
Dew Point: 44°   Wind: 7mph
Humidity: 64%   Direction: 210°SSW
Pressure: 29.97"   Gusts: NA
Location:  39.9°N, 81.55°W
Report Text: KPKB 201753Z 21006KT 10SM SCT070 BKN085 13/07 A2997 RMK AO2 SLP151 60000 T01330067 10133 20056 56028
Loading
Personal Weather Stations






























Interactive Weather Map
Tropical Storm Tracking
New forecast layout! Learn more

10-Day Weather Forecast

Advertisements
Track Severe Weather on mobile